Portada
METAR-TAF:

METAR-TAF

Aeroports :

Àqaba, Jordània

latitud: 29-38N, longitud: 035-01E, altitud: 53 m

Observació

L'informe es va fer fa 2 hores i 8 minuts, a les 23:00 UTC
Vent 6 kt del Nord
Temperatura 17°C
Humitat 63%
Pressió 1017 hPa
Visibilitat: 8000 m

METAR: OJAQ 052300Z 01006KT 8000 NSC 17/10 Q1017 NOSIG

Hora: 03:08 (01:08 UTC)

Pronòstic

L'informe es va fer fa 2 hores i 18 minuts, a les 22:50 UTC
Pronòstic vàlid del 06 a les 00 UTC al 07 a les 06 UTC
Vent 10 kt del Nord
Visibilitat 10 km o més
sense núvols per sota de 1500 mi sense presència de cumulonimbus.
Evolucionant progressivament
l' 06 a les 06 UTC al 06 a les 08 UTC
Vent 14 kt del Nord
Visibilitat 10 km o més
Núvols disperses a una alçada de 4500 ft

TAF: OJAQ 052250Z 0600/0706 36010KT CAVOK BECMG 0606/0608 01014KT 9999 SCT045

Observacions i pronòstics meteorològics de més de 4000 aeroports (METAR i TAF).

Les estacions disponibles són els punts grocs i vermells al mapa.

Posi el ratolí al punt desitjat per veure el nom de l'estació.

Feu clic per veure les observacions i els pronòstics meteorològics.

Per canviar el mapa: feu clic els botons verds amb una creu de color negre per apropar; al botó verd amb un guió per allunyar la imatge; o en les fletxes verdes per a mapes adjacents.


METAR-TAF: